Time;durP1;ratioP1;P1;durP2;ratioP2;P2;SDS_P1;SDS_P2;PMS_P1;PMS_P2;Temp;Humidity;BMP_temperature;BMP_pressure;BME280_temperature;BME280_humidity;BME280_pressure;Samples;Min_cycle;Max_cycle;Signal;HPM_P1;HPM_P2
2022/10/10 00:04:03;;;;;;;9.20;5.90;;;21.80;69.30;;;;;;215201;1298;22452;-64
2022/10/10 00:09:07;;;;;;;8.40;5.60;;;21.80;70.00;;;;;;215202;1284;24228;-62
2022/10/10 00:14:11;;;;;;;11.80;5.90;;;21.80;69.50;;;;;;215009;1287;25134;-65
2022/10/10 00:19:15;;;;;;;9.60;5.70;;;21.70;69.50;;;;;;215135;1300;25432;-63
2022/10/10 00:24:19;;;;;;;8.60;5.90;;;21.80;69.60;;;;;;214938;1286;25327;-62
2022/10/10 00:29:23;;;;;;;11.90;5.90;;;21.70;69.60;;;;;;214833;1279;22588;-63
2022/10/10 00:34:27;;;;;;;8.30;5.80;;;21.70;69.60;;;;;;214833;1281;22453;-63
2022/10/10 00:39:31;;;;;;;17.40;6.80;;;21.70;69.80;;;;;;214932;1289;22921;-62
2022/10/10 00:44:36;;;;;;;9.10;5.60;;;21.70;69.90;;;;;;214725;1291;22693;-64
2022/10/10 00:49:43;;;;;;;9.30;5.00;;;21.60;69.40;;;;;;215027;1300;25273;-63
2022/10/10 00:54:49;;;;;;;11.90;5.90;;;21.60;69.40;;;;;;215013;1300;25314;-63
2022/10/10 00:59:56;;;;;;;12.90;5.90;;;21.60;69.40;;;;;;215011;1284;25202;-63
2022/10/10 01:04:59;;;;;;;13.90;6.10;;;21.60;69.60;;;;;;214743;1291;22681;-63
2022/10/10 01:10:12;;;;;;;6.80;5.00;;;21.60;69.40;;;;;;214985;1280;24423;-58
2022/10/10 01:15:27;;;;;;;9.00;5.50;;;21.60;69.50;;;;;;215004;1293;24221;-63
2022/10/10 01:20:48;;;;;;;9.10;5.40;;;21.60;69.40;;;;;;215121;1281;22535;-66
2022/10/10 01:25:52;;;;;;;8.00;5.00;;;21.50;69.80;;;;;;214957;1288;24169;-59
2022/10/10 01:30:57;;;;;;;7.90;5.40;;;21.50;69.40;;;;;;215005;1280;24296;-64
2022/10/10 01:36:24;;;;;;;10.20;5.10;;;21.50;69.40;;;;;;215073;1282;24240;-64
2022/10/10 01:41:35;;;;;;;9.80;5.50;;;21.50;69.30;;;;;;214790;1289;22453;-62
2022/10/10 01:46:39;;;;;;;8.80;5.20;;;21.50;69.40;;;;;;215103;1288;22458;-63
2022/10/10 01:52:11;;;;;;;7.70;4.80;;;21.50;69.40;;;;;;215013;1288;22511;-69
2022/10/10 01:57:25;;;;;;;7.20;4.70;;;21.40;69.70;;;;;;215013;1292;23809;-63
2022/10/10 02:02:46;;;;;;;7.60;4.70;;;21.40;69.30;;;;;;214969;1287;22492;-63
2022/10/10 02:07:57;;;;;;;7.00;4.70;;;21.40;69.60;;;;;;215104;1300;25477;-64
2022/10/10 02:13:03;;;;;;;9.30;4.60;;;21.40;69.30;;;;;;215018;1298;25205;-64
2022/10/10 02:18:13;;;;;;;7.50;4.50;;;21.40;69.30;;;;;;215102;1300;25314;-62
2022/10/10 02:23:19;;;;;;;9.40;5.30;;;21.40;69.30;;;;;;215042;1297;25282;-63
2022/10/10 02:28:28;;;;;;;7.30;4.60;;;21.30;69.40;;;;;;215042;1281;24240;-62
2022/10/10 02:33:42;;;;;;;8.70;5.20;;;21.30;69.20;;;;;;215086;1294;22526;-66
2022/10/10 02:38:47;;;;;;;7.10;4.20;;;21.40;69.30;;;;;;215029;1293;23891;-63
2022/10/10 02:43:53;;;;;;;6.30;4.10;;;21.30;69.30;;;;;;215021;1289;22640;-66
2022/10/10 02:48:57;;;;;;;8.90;4.60;;;21.30;69.20;;;;;;215122;1294;22476;-62
2022/10/10 02:54:01;;;;;;;6.60;4.20;;;21.30;69.30;;;;;;215143;1288;24208;-66
2022/10/10 02:59:07;;;;;;;9.60;4.30;;;21.30;69.20;;;;;;214786;1285;22477;-63
2022/10/10 03:04:15;;;;;;;6.10;4.10;;;21.30;69.30;;;;;;214755;1300;25288;-65
2022/10/10 03:09:21;;;;;;;9.30;4.90;;;21.20;69.10;;;;;;215101;1285;24257;-63
2022/10/10 03:14:31;;;;;;;7.40;4.30;;;21.20;69.20;;;;;;214973;1299;24295;-62
2022/10/10 03:19:40;;;;;;;6.50;4.30;;;21.20;69.30;;;;;;215073;1298;22656;-63
2022/10/10 03:24:57;;;;;;;6.20;3.70;;;21.20;69.20;;;;;;214986;1289;24229;-62
2022/10/10 03:30:13;;;;;;;7.30;4.60;;;21.20;69.10;;;;;;214903;1288;24457;-65
2022/10/10 03:35:17;;;;;;;6.70;4.40;;;21.20;69.10;;;;;;214990;1293;22465;-63
2022/10/10 03:40:33;;;;;;;7.60;4.40;;;21.20;69.10;;;;;;214951;1291;22597;-60
2022/10/10 03:45:54;;;;;;;8.30;4.30;;;21.10;69.10;;;;;;214918;1295;22593;-63
2022/10/10 03:51:01;;;;;;;6.10;3.90;;;21.10;69.20;;;;;;214983;1285;24254;-64
2022/10/10 03:56:09;;;;;;;6.00;3.70;;;21.10;69.10;;;;;;214783;1296;24266;-64
2022/10/10 04:01:15;;;;;;;6.20;4.00;;;21.10;69.30;;;;;;214887;1295;22630;-65
2022/10/10 04:06:18;;;;;;;6.60;4.00;;;21.10;69.30;;;;;;215006;1285;22487;-63
2022/10/10 04:11:22;;;;;;;5.60;3.90;;;21.10;69.70;;;;;;214989;1300;25276;-65
2022/10/10 04:16:25;;;;;;;5.70;4.00;;;21.00;69.20;;;;;;214935;1300;22473;-64
2022/10/10 04:21:29;;;;;;;7.80;4.10;;;21.00;69.20;;;;;;215022;1287;22529;-62
2022/10/10 04:26:33;;;;;;;6.40;3.60;;;21.00;69.60;;;;;;214990;1281;22471;-66
2022/10/10 04:31:37;;;;;;;5.40;3.80;;;21.00;69.60;;;;;;214949;1285;25280;-63
2022/10/10 04:36:41;;;;;;;5.30;3.80;;;21.00;69.30;;;;;;214993;1294;22473;-64
2022/10/10 04:41:48;;;;;;;8.30;3.60;;;21.00;69.30;;;;;;215066;1288;24275;-63
2022/10/10 04:46:52;;;;;;;5.70;3.80;;;21.00;69.30;;;;;;215056;1287;24204;-66
2022/10/10 04:51:55;;;;;;;9.10;4.50;;;20.90;69.30;;;;;;214977;1297;24690;-65
2022/10/10 04:56:59;;;;;;;6.60;3.80;;;21.00;69.40;;;;;;215022;1295;22533;-63
2022/10/10 05:02:02;;;;;;;5.10;3.80;;;20.90;68.90;;;;;;214877;1292;22459;-65
2022/10/10 05:07:06;;;;;;;7.00;3.90;;;20.90;69.30;;;;;;215180;1301;24304;-65
2022/10/10 05:12:09;;;;;;;8.40;4.00;;;20.90;69.40;;;;;;214978;1284;24256;-63
2022/10/10 05:17:13;;;;;;;6.10;3.70;;;20.90;69.30;;;;;;214780;1292;22474;-64
2022/10/10 05:22:17;;;;;;;6.40;3.90;;;21.10;68.80;;;;;;215025;1301;22491;-62
2022/10/10 05:27:20;;;;;;;9.60;4.50;;;21.40;67.80;;;;;;215058;1288;22451;-62
2022/10/10 05:32:24;;;;;;;7.80;3.70;;;21.70;67.40;;;;;;215014;1285;24263;-63
2022/10/10 05:37:29;;;;;;;11.90;3.90;;;21.90;66.70;;;;;;214967;1298;22544;-60
2022/10/10 05:42:33;;;;;;;4.90;3.30;;;22.00;66.90;;;;;;215175;1289;22459;-60
2022/10/10 05:47:36;;;;;;;6.00;3.80;;;22.00;66.80;;;;;;215065;1289;25440;-63
2022/10/10 05:52:39;;;;;;;7.50;3.80;;;22.00;66.70;;;;;;215131;1291;24260;-59
2022/10/10 05:57:43;;;;;;;9.50;3.20;;;22.00;67.10;;;;;;215019;1286;22458;-61
2022/10/10 06:02:47;;;;;;;8.30;3.50;;;22.00;67.60;;;;;;215010;1300;24438;-62
2022/10/10 06:07:51;;;;;;;6.00;3.50;;;21.90;67.70;;;;;;214903;1287;227372;-61
2022/10/10 06:13:16;;;;;;;8.70;3.50;;;22.00;67.60;;;;;;214898;1284;22492;-61
2022/10/10 06:18:25;;;;;;;6.40;3.40;;;21.90;68.10;;;;;;214871;1287;22540;-61
2022/10/10 06:23:29;;;;;;;7.20;3.20;;;22.00;68.30;;;;;;215185;1284;24243;-62
2022/10/10 06:28:37;;;;;;;16.50;3.90;;;22.00;68.10;;;;;;215028;1300;22470;-61
2022/10/10 06:33:44;;;;;;;10.20;3.50;;;21.90;68.40;;;;;;214993;1300;25274;-64
2022/10/10 06:38:48;;;;;;;8.60;3.40;;;21.90;68.50;;;;;;214922;1287;24332;-61
2022/10/10 06:43:53;;;;;;;7.90;4.00;;;21.80;68.40;;;;;;215003;1288;25195;-63
2022/10/10 06:48:57;;;;;;;16.50;3.70;;;21.80;68.60;;;;;;214883;1295;22487;-61
2022/10/10 06:54:02;;;;;;;9.40;3.30;;;21.80;68.50;;;;;;214825;1284;24301;-61
2022/10/10 06:59:10;;;;;;;11.10;4.30;;;21.80;68.40;;;;;;215233;1275;25486;-60
2022/10/10 07:04:16;;;;;;;12.90;3.50;;;21.80;68.10;;;;;;215023;1292;22467;-60
2022/10/10 07:09:21;;;;;;;8.90;3.20;;;21.70;67.80;;;;;;214796;1291;22534;-62
2022/10/10 07:14:26;;;;;;;20.40;4.40;;;21.60;68.40;;;;;;214684;1286;22915;-63
2022/10/10 07:19:30;;;;;;;7.70;3.70;;;21.60;68.10;;;;;;214538;1283;25210;-61
2022/10/10 07:24:35;;;;;;;6.40;3.20;;;21.60;68.10;;;;;;214690;1294;22454;-62
2022/10/10 07:29:45;;;;;;;6.90;3.40;;;21.60;67.90;;;;;;214509;1297;22471;-62
2022/10/10 07:34:57;;;;;;;9.80;3.50;;;21.60;67.60;;;;;;214567;1286;24234;-60
2022/10/10 07:40:07;;;;;;;6.40;3.50;;;21.50;68.10;;;;;;214466;1280;22464;-63
2022/10/10 07:45:12;;;;;;;13.80;4.20;;;21.50;68.70;;;;;;214337;1303;25210;-62
2022/10/10 07:50:16;;;;;;;7.50;3.30;;;21.60;68.00;;;;;;214446;1300;25491;-63
2022/10/10 07:55:23;;;;;;;7.80;3.60;;;21.60;67.80;;;;;;214320;1288;24228;-60
2022/10/10 08:00:28;;;;;;;7.60;3.30;;;21.60;67.70;;;;;;214570;1289;23875;-60
2022/10/10 08:05:32;;;;;;;6.40;3.00;;;21.60;67.50;;;;;;214579;1291;22463;-61
2022/10/10 08:10:41;;;;;;;9.70;3.90;;;21.60;67.60;;;;;;215105;1282;23843;-64
2022/10/10 08:15:50;;;;;;;6.80;3.90;;;21.70;67.50;;;;;;214963;1286;22469;-62
2022/10/10 08:21:06;;;;;;;4.90;3.00;;;21.70;67.60;;;;;;215002;1296;25302;-58
2022/10/10 08:26:13;;;;;;;6.20;3.30;;;21.80;67.10;;;;;;215001;1299;22634;-59
2022/10/10 08:31:22;;;;;;;6.40;3.30;;;21.80;66.90;;;;;;215000;1286;22474;-60
2022/10/10 08:36:27;;;;;;;11.80;4.30;;;21.80;67.20;;;;;;215013;1292;22594;-60
2022/10/10 08:41:57;;;;;;;6.60;3.60;;;21.80;66.50;;;;;;214753;1286;24082;-60
2022/10/10 08:47:25;;;;;;;6.60;3.80;;;21.90;66.50;;;;;;214912;1283;22471;-61
2022/10/10 08:52:38;;;;;;;8.60;3.70;;;21.90;66.70;;;;;;214961;1286;23869;-58
2022/10/10 08:57:58;;;;;;;13.60;4.20;;;21.90;66.30;;;;;;214878;1282;24247;-62
2022/10/10 09:03:11;;;;;;;15.80;4.90;;;22.00;66.10;;;;;;215087;1300;22516;-62
2022/10/10 09:08:37;;;;;;;11.20;3.80;;;22.00;66.40;;;;;;214318;1303;24298;-61
2022/10/10 09:13:56;;;;;;;8.00;3.60;;;22.00;66.70;;;;;;214364;1283;22750;-61
2022/10/10 09:19:13;;;;;;;10.10;4.90;;;22.00;66.20;;;;;;214386;1295;24354;-62
2022/10/10 09:24:31;;;;;;;10.40;5.10;;;22.00;66.60;;;;;;214282;1284;24391;-58
2022/10/10 09:30:17;;;;;;;11.00;4.90;;;22.00;66.80;;;;;;214301;1287;22546;-62
2022/10/10 09:35:25;;;;;;;9.60;4.80;;;22.10;66.70;;;;;;214318;1286;26146;-61
2022/10/10 09:40:34;;;;;;;10.50;5.10;;;22.10;66.50;;;;;;214372;1286;24486;-61
2022/10/10 09:45:53;;;;;;;10.20;4.90;;;22.20;66.50;;;;;;214368;1291;22613;-60
2022/10/10 09:50:59;;;;;;;7.70;5.30;;;22.20;66.20;;;;;;214385;1279;22482;-63
2022/10/10 09:56:04;;;;;;;10.80;5.40;;;22.20;65.40;;;;;;214259;1299;22491;-62
2022/10/10 10:01:20;;;;;;;9.30;5.40;;;22.30;65.90;;;;;;214511;1284;22620;-61
2022/10/10 10:06:24;;;;;;;9.10;4.90;;;22.40;65.40;;;;;;214726;1300;25189;-58
2022/10/10 10:11:38;;;;;;;11.60;5.00;;;22.30;64.90;;;;;;214930;1288;22470;-61
2022/10/10 10:16:42;;;;;;;7.70;4.80;;;22.40;64.90;;;;;;214909;1300;23047;-61
2022/10/10 10:21:48;;;;;;;9.10;4.80;;;22.40;65.40;;;;;;214938;1283;22493;-60
2022/10/10 10:26:52;;;;;;;10.00;5.30;;;22.50;65.20;;;;;;214938;1289;23992;-62
2022/10/10 10:32:08;;;;;;;9.60;5.40;;;22.50;65.30;;;;;;214918;1284;24279;-62
2022/10/10 10:37:23;;;;;;;10.10;4.80;;;22.50;65.00;;;;;;214806;1295;24327;-59
2022/10/10 10:42:41;;;;;;;7.30;4.50;;;22.60;65.00;;;;;;214967;1288;22482;-59
2022/10/10 10:47:56;;;;;;;8.50;4.80;;;22.50;65.50;;;;;;214952;1299;22482;-61
2022/10/10 10:53:14;;;;;;;12.10;5.60;;;22.50;65.10;;;;;;214961;1288;22625;-60
2022/10/10 10:58:35;;;;;;;12.10;5.10;;;22.50;65.10;;;;;;214950;1295;22586;-62
2022/10/10 11:04:04;;;;;;;7.70;5.00;;;22.50;65.10;;;;;;214977;1295;25488;-61
2022/10/10 11:09:39;;;;;;;10.10;4.60;;;22.50;65.20;;;;;;214895;1283;24950;-60
2022/10/10 11:15:04;;;;;;;12.10;5.30;;;22.50;65.40;;;;;;214841;1286;24073;-61
2022/10/10 11:20:27;;;;;;;12.70;5.20;;;22.60;68.10;;;;;;214984;1278;22517;-61
2022/10/10 11:25:48;;;;;;;9.10;5.30;;;22.60;67.60;;;;;;214876;1284;22468;-62
2022/10/10 11:30:57;;;;;;;9.30;5.10;;;22.60;67.50;;;;;;215008;1272;22531;-61
2022/10/10 11:36:21;;;;;;;10.70;5.30;;;22.60;66.90;;;;;;215026;1281;22492;-65
2022/10/10 11:41:35;;;;;;;8.80;4.30;;;22.60;66.90;;;;;;214987;1281;22547;-63
2022/10/10 11:46:46;;;;;;;10.70;5.70;;;22.70;66.50;;;;;;214730;1288;22587;-59
2022/10/10 11:51:55;;;;;;;9.70;4.50;;;22.70;66.80;;;;;;214975;1287;22461;-61
2022/10/10 11:57:32;;;;;;;9.30;4.90;;;22.70;66.10;;;;;;214944;1281;24279;-57
2022/10/10 12:02:41;;;;;;;12.50;5.00;;;22.70;65.90;;;;;;215131;1300;26554;-64
2022/10/10 12:07:57;;;;;;;9.10;4.80;;;22.70;65.90;;;;;;214934;1287;22478;-64
2022/10/10 12:13:35;;;;;;;10.30;4.80;;;22.80;66.10;;;;;;215123;1285;24260;-62
2022/10/10 12:18:38;;;;;;;7.20;4.70;;;22.70;65.50;;;;;;215101;1278;24340;-62
2022/10/10 12:23:47;;;;;;;7.80;4.40;;;22.80;65.60;;;;;;215206;1284;22461;-63
2022/10/10 12:29:09;;;;;;;9.30;4.80;;;22.80;65.50;;;;;;215083;1283;24234;-63
2022/10/10 12:34:34;;;;;;;7.60;4.30;;;22.80;65.60;;;;;;215041;1281;22466;-60
2022/10/10 12:40:05;;;;;;;9.50;5.10;;;22.70;65.50;;;;;;215087;1283;24253;-61
2022/10/10 12:45:27;;;;;;;8.80;5.00;;;22.80;65.50;;;;;;214774;1276;22474;-61
2022/10/10 12:50:37;;;;;;;8.90;4.60;;;22.80;65.40;;;;;;215003;1298;22456;-60
2022/10/10 12:55:48;;;;;;;10.80;4.70;;;22.80;64.90;;;;;;215096;1281;22466;-61
2022/10/10 13:00:54;;;;;;;7.80;4.40;;;22.80;64.60;;;;;;214920;1291;22457;-60
2022/10/10 13:06:04;;;;;;;7.70;4.10;;;22.80;65.00;;;;;;214968;1294;23839;-61
2022/10/10 13:11:11;;;;;;;6.90;4.60;;;22.80;64.70;;;;;;215066;1280;23084;-59
2022/10/10 13:16:19;;;;;;;8.60;4.20;;;22.70;65.10;;;;;;214783;1284;22499;-59
2022/10/10 13:21:27;;;;;;;8.70;4.70;;;22.70;65.50;;;;;;214899;1283;22467;-62
2022/10/10 13:26:36;;;;;;;7.00;4.40;;;22.80;65.70;;;;;;214962;1287;22576;-60
2022/10/10 13:31:43;;;;;;;7.80;4.70;;;22.80;65.90;;;;;;215042;1281;23263;-60
2022/10/10 13:36:46;;;;;;;7.40;4.70;;;22.80;66.10;;;;;;215174;1281;22906;-61
2022/10/10 13:41:51;;;;;;;7.50;4.60;;;22.70;66.70;;;;;;215062;1282;24898;-60
2022/10/10 13:46:56;;;;;;;9.80;4.90;;;22.70;66.50;;;;;;215004;1283;22476;-60
2022/10/10 13:52:21;;;;;;;7.00;4.00;;;22.70;66.80;;;;;;215024;1292;22575;-60
2022/10/10 13:57:26;;;;;;;8.00;4.60;;;22.60;66.90;;;;;;215036;1284;22692;-62
2022/10/10 14:02:32;;;;;;;7.90;4.50;;;22.60;66.90;;;;;;214813;1297;22466;-60
2022/10/10 14:07:36;;;;;;;6.40;4.40;;;22.60;67.10;;;;;;215057;1293;22543;-63
2022/10/10 14:12:47;;;;;;;10.20;4.80;;;22.50;67.30;;;;;;215047;1281;22453;-63
2022/10/10 14:17:50;;;;;;;14.50;5.30;;;22.60;68.40;;;;;;214799;1299;22493;-57
2022/10/10 14:22:54;;;;;;;15.20;5.10;;;22.50;68.10;;;;;;215135;1282;24272;-60
2022/10/10 14:27:58;;;;;;;8.00;4.40;;;22.60;68.20;;;;;;214820;1294;24011;-60
2022/10/10 14:33:01;;;;;;;8.30;3.90;;;22.50;68.60;;;;;;214708;1300;22456;-58
2022/10/10 14:38:05;;;;;;;7.70;4.40;;;22.60;68.70;;;;;;215300;1291;22530;-58
2022/10/10 14:43:09;;;;;;;10.50;4.20;;;22.50;68.90;;;;;;214891;1281;22467;-57
2022/10/10 14:48:12;;;;;;;11.50;4.30;;;22.60;69.40;;;;;;215300;1284;22535;-58
2022/10/10 14:53:17;;;;;;;7.40;4.10;;;22.60;69.20;;;;;;215016;1294;24006;-59
2022/10/10 14:58:21;;;;;;;10.70;4.40;;;22.60;69.50;;;;;;214986;1285;22464;-63
2022/10/10 15:03:28;;;;;;;12.20;4.70;;;22.60;69.80;;;;;;215033;1283;24229;-58
2022/10/10 15:08:33;;;;;;;6.20;4.00;;;22.60;69.90;;;;;;215244;1291;22927;-62
2022/10/10 15:13:39;;;;;;;8.40;4.40;;;22.60;70.40;;;;;;214982;1285;22639;-61
2022/10/10 15:18:55;;;;;;;8.70;4.00;;;22.60;70.80;;;;;;214985;1286;26479;-60
2022/10/10 15:24:05;;;;;;;10.30;4.50;;;22.60;71.40;;;;;;214484;1278;25254;-60
2022/10/10 15:29:14;;;;;;;8.30;4.20;;;22.70;72.00;;;;;;214920;1284;22526;-61
2022/10/10 15:34:22;;;;;;;9.00;4.80;;;22.70;71.70;;;;;;214580;1288;22520;-59
2022/10/10 15:39:39;;;;;;;7.70;4.30;;;22.70;71.80;;;;;;214722;1287;24308;-64
2022/10/10 15:44:57;;;;;;;12.90;4.50;;;22.70;72.60;;;;;;214884;1284;23639;-59
2022/10/10 15:50:09;;;;;;;9.20;4.00;;;22.70;72.50;;;;;;214876;1287;22892;-61
2022/10/10 15:55:16;;;;;;;9.60;4.20;;;22.70;72.60;;;;;;214766;1285;24383;-62
2022/10/10 16:00:23;;;;;;;7.60;4.60;;;22.70;72.40;;;;;;214980;1281;22468;-60
2022/10/10 16:05:31;;;;;;;10.00;4.50;;;22.70;73.10;;;;;;214673;1300;25398;-59
2022/10/10 16:10:40;;;;;;;11.50;4.20;;;22.80;72.50;;;;;;214803;1295;25269;-60
2022/10/10 16:15:57;;;;;;;12.30;4.50;;;22.70;72.30;;;;;;215129;1300;22504;-62
2022/10/10 16:21:04;;;;;;;14.40;4.30;;;22.70;73.40;;;;;;215125;1291;22476;-61
2022/10/10 16:26:13;;;;;;;10.60;4.80;;;22.70;72.90;;;;;;215063;1275;22752;-61
2022/10/10 16:31:18;;;;;;;9.80;4.40;;;22.80;72.70;;;;;;215229;1288;24325;-59
2022/10/10 16:36:29;;;;;;;8.20;5.00;;;22.70;72.60;;;;;;215041;1295;22465;-62
2022/10/10 16:41:42;;;;;;;7.30;3.80;;;22.80;72.60;;;;;;215016;1285;22474;-62
2022/10/10 16:46:52;;;;;;;9.70;4.90;;;22.70;72.60;;;;;;214977;1300;24007;-63
2022/10/10 16:51:57;;;;;;;12.10;4.70;;;22.80;71.80;;;;;;214968;1280;24395;-59
2022/10/10 16:57:00;;;;;;;11.50;5.30;;;23.00;72.50;;;;;;214738;1300;25318;-56
2022/10/10 17:02:04;;;;;;;13.40;4.80;;;22.80;71.30;;;;;;215016;1288;22628;-57
2022/10/10 17:07:08;;;;;;;9.30;4.20;;;22.70;71.10;;;;;;215001;1286;22472;-59
2022/10/10 17:12:11;;;;;;;12.00;4.70;;;22.70;71.30;;;;;;215198;1281;24385;-59
2022/10/10 17:17:16;;;;;;;12.40;4.50;;;22.70;70.90;;;;;;215027;1291;22469;-58
2022/10/10 17:22:19;;;;;;;11.40;4.20;;;22.60;71.20;;;;;;215096;1295;24272;-58
2022/10/10 17:27:23;;;;;;;7.90;4.20;;;22.70;70.80;;;;;;214989;1280;22495;-60
2022/10/10 17:32:27;;;;;;;8.70;4.60;;;22.60;70.90;;;;;;215107;1286;25406;-59
2022/10/10 17:37:33;;;;;;;9.00;4.50;;;22.60;71.00;;;;;;215194;1281;23725;-57
2022/10/10 17:42:36;;;;;;;11.80;4.60;;;22.60;71.00;;;;;;214805;1286;22462;-57
2022/10/10 17:47:40;;;;;;;10.20;4.60;;;22.60;71.00;;;;;;214627;1285;22507;-56
2022/10/10 17:52:44;;;;;;;10.10;5.30;;;22.60;71.20;;;;;;214872;1291;24294;-59
2022/10/10 17:57:51;;;;;;;8.50;4.40;;;22.60;71.30;;;;;;214963;1287;22619;-60
2022/10/10 18:02:58;;;;;;;10.00;4.20;;;22.60;71.60;;;;;;215085;1284;26257;-59
2022/10/10 18:08:11;;;;;;;11.80;4.50;;;22.50;71.30;;;;;;214660;1276;623617;-61
2022/10/10 18:13:18;;;;;;;12.50;4.30;;;22.50;71.40;;;;;;214970;1286;22517;-62
2022/10/10 18:18:21;;;;;;;12.90;4.60;;;22.50;71.20;;;;;;215140;1286;22507;-59
2022/10/10 18:23:26;;;;;;;14.30;4.60;;;22.50;71.50;;;;;;215005;1300;23180;-61
2022/10/10 18:28:32;;;;;;;11.40;4.30;;;22.50;71.80;;;;;;214980;1292;25381;-62
2022/10/10 18:33:39;;;;;;;12.30;4.40;;;22.50;71.50;;;;;;215069;1300;25451;-62
2022/10/10 18:39:06;;;;;;;15.00;4.50;;;22.50;71.90;;;;;;215032;1284;23290;-61
2022/10/10 18:44:15;;;;;;;13.80;4.00;;;22.40;71.50;;;;;;214908;1278;24285;-61
2022/10/10 18:49:23;;;;;;;13.40;4.70;;;22.50;71.60;;;;;;215075;1281;22779;-63
2022/10/10 18:54:32;;;;;;;15.90;4.50;;;22.40;71.20;;;;;;215191;1286;26464;-62
2022/10/10 18:59:35;;;;;;;13.20;4.70;;;22.40;71.80;;;;;;215026;1287;22542;-61
2022/10/10 19:04:42;;;;;;;9.10;4.80;;;22.40;72.00;;;;;;214935;1275;22509;-61
2022/10/10 19:09:46;;;;;;;13.40;4.80;;;22.40;71.80;;;;;;215056;1285;23597;-60
2022/10/10 19:14:50;;;;;;;12.40;4.60;;;22.40;71.10;;;;;;214998;1292;24195;-62
2022/10/10 19:19:59;;;;;;;8.70;4.00;;;22.40;71.30;;;;;;215164;1289;22492;-61
2022/10/10 19:25:09;;;;;;;12.70;4.80;;;22.30;71.40;;;;;;215014;1283;22647;-63
2022/10/10 19:30:14;;;;;;;9.30;4.90;;;22.30;71.60;;;;;;215044;1282;24257;-59
2022/10/10 19:35:17;;;;;;;12.60;5.00;;;22.30;71.40;;;;;;215131;1291;22517;-62
2022/10/10 19:40:21;;;;;;;15.50;5.00;;;22.30;72.10;;;;;;215115;1291;22445;-62
2022/10/10 19:45:28;;;;;;;10.80;4.50;;;22.30;71.20;;;;;;214945;1300;24292;-61
2022/10/10 19:50:43;;;;;;;10.80;4.60;;;22.30;71.30;;;;;;214950;1300;26583;-65
2022/10/10 19:56:05;;;;;;;11.10;4.20;;;22.30;72.20;;;;;;215036;1291;23893;-59
2022/10/10 20:01:27;;;;;;;18.00;5.70;;;22.30;72.50;;;;;;214650;1286;22574;-60
2022/10/10 20:06:36;;;;;;;9.20;4.70;;;22.20;72.80;;;;;;214800;1292;24376;-58
2022/10/10 20:11:45;;;;;;;6.50;4.10;;;22.20;72.40;;;;;;214872;1282;24350;-59
2022/10/10 20:16:55;;;;;;;11.40;4.80;;;22.20;72.30;;;;;;214793;1286;22604;-61
2022/10/10 20:22:07;;;;;;;7.40;4.60;;;22.20;72.60;;;;;;214991;1294;26476;-63
2022/10/10 20:27:21;;;;;;;14.20;5.40;;;22.20;72.00;;;;;;214466;1292;22517;-60
2022/10/10 20:32:48;;;;;;;9.70;4.20;;;22.20;72.50;;;;;;214716;1282;24400;-62
2022/10/10 20:38:24;;;;;;;;;;;;;;;;;;;;;
2022/10/10 20:43:43;;;;;;;12.40;5.40;;;22.20;72.40;;;;;;214780;1300;24194;-56
2022/10/10 20:48:52;;;;;;;8.30;4.90;;;22.10;72.40;;;;;;215070;1286;25206;-58
2022/10/10 20:54:06;;;;;;;7.70;4.50;;;22.10;72.80;;;;;;214984;1294;22605;-55
2022/10/10 20:59:23;;;;;;;10.20;4.40;;;22.10;72.30;;;;;;214590;1287;22543;-61
2022/10/10 21:04:29;;;;;;;8.20;4.90;;;22.00;72.60;;;;;;214857;1287;22508;-60
2022/10/10 21:09:38;;;;;;;7.70;4.20;;;22.00;72.10;;;;;;214792;1285;23960;-60
2022/10/10 21:14:48;;;;;;;9.70;4.70;;;22.00;72.40;;;;;;214746;1285;24269;-62
2022/10/10 21:19:52;;;;;;;10.90;4.40;;;22.10;72.10;;;;;;214838;1285;22586;-65
2022/10/10 21:24:55;;;;;;;13.20;5.00;;;22.10;75.20;;;;;;214817;1281;24302;-61
2022/10/10 21:29:59;;;;;;;10.70;4.40;;;22.10;75.50;;;;;;215038;1294;24237;-58
2022/10/10 21:35:11;;;;;;;11.10;4.70;;;22.20;75.20;;;;;;214772;1286;22583;-62
2022/10/10 21:40:16;;;;;;;10.70;5.10;;;22.20;74.80;;;;;;214797;1282;22473;-60
2022/10/10 21:45:34;;;;;;;10.00;5.40;;;22.20;74.80;;;;;;214604;1291;24299;-60
2022/10/10 21:50:40;;;;;;;9.10;4.70;;;22.10;74.00;;;;;;214753;1292;25204;-57
2022/10/10 21:56:04;;;;;;;6.70;4.50;;;22.20;74.40;;;;;;214622;1298;23029;-60
2022/10/10 22:01:14;;;;;;;10.80;4.70;;;22.20;74.10;;;;;;214675;1291;22453;-60
2022/10/10 22:06:23;;;;;;;10.40;4.70;;;22.20;74.60;;;;;;214829;1288;22599;-62
2022/10/10 22:11:30;;;;;;;7.90;4.20;;;22.10;74.40;;;;;;214796;1289;22468;-62
2022/10/10 22:16:34;;;;;;;10.50;4.80;;;22.10;74.50;;;;;;214740;1300;22506;-61
2022/10/10 22:21:38;;;;;;;9.50;4.70;;;22.10;74.20;;;;;;214667;1291;24008;-61
2022/10/10 22:26:42;;;;;;;8.00;4.40;;;22.10;74.30;;;;;;214858;1292;22588;-60
2022/10/10 22:31:48;;;;;;;11.90;4.40;;;22.10;74.20;;;;;;215000;1287;24282;-61
2022/10/10 22:36:52;;;;;;;8.40;4.40;;;22.10;74.30;;;;;;214494;1284;22506;-60
2022/10/10 22:41:57;;;;;;;10.10;5.10;;;22.10;75.00;;;;;;214637;1288;24269;-59
2022/10/10 22:47:02;;;;;;;12.90;4.60;;;22.00;74.50;;;;;;214905;1291;22468;-60
2022/10/10 22:52:08;;;;;;;8.00;4.50;;;22.10;74.50;;;;;;214679;1288;24224;-61
2022/10/10 22:57:14;;;;;;;11.60;4.20;;;22.10;74.50;;;;;;214588;1284;22461;-59
2022/10/10 23:02:19;;;;;;;10.90;4.40;;;22.10;74.50;;;;;;215146;1282;24367;-60
2022/10/10 23:07:22;;;;;;;15.40;5.50;;;22.10;74.20;;;;;;215065;1299;22469;-63
2022/10/10 23:12:26;;;;;;;12.90;4.80;;;22.10;75.10;;;;;;215044;1292;24246;-60
2022/10/10 23:17:31;;;;;;;10.10;5.00;;;22.10;74.80;;;;;;214984;1287;25347;-62
2022/10/10 23:22:38;;;;;;;12.80;5.10;;;22.10;74.60;;;;;;215009;1288;22465;-60
2022/10/10 23:27:43;;;;;;;10.20;5.10;;;22.10;74.80;;;;;;214860;1284;22455;-62
2022/10/10 23:32:46;;;;;;;20.50;5.90;;;22.10;74.00;;;;;;215014;1281;25484;-61
2022/10/10 23:37:50;;;;;;;12.40;5.20;;;22.10;73.90;;;;;;214786;1294;22520;-61
2022/10/10 23:42:53;;;;;;;9.20;4.50;;;22.00;73.80;;;;;;215014;1274;24211;-62
2022/10/10 23:47:57;;;;;;;7.50;4.20;;;22.00;73.80;;;;;;214715;1287;25611;-61
2022/10/10 23:53:01;;;;;;;10.00;4.90;;;22.00;73.80;;;;;;215017;1300;22474;-62
2022/10/10 23:58:06;;;;;;;9.50;4.90;;;21.90;73.70;;;;;;214996;1285;23032;-62
